sensor_id;sensor_type;location;lat;lon;timestamp;pressure;altitude;pressure_sealevel;temperature;humidity
10115;BME280;5097;43.260;27.812;2023-04-08T00:02:02;100571.47;;;7.02;66.96
10115;BME280;5097;43.260;27.812;2023-04-08T00:04:46;100584.63;;;7.29;67.25
10115;BME280;5097;43.260;27.812;2023-04-08T00:07:31;100571.84;;;7.16;66.57
10115;BME280;5097;43.260;27.812;2023-04-08T00:10:15;100584.72;;;6.97;67.68
10115;BME280;5097;43.260;27.812;2023-04-08T00:12:59;100551.75;;;6.87;67.43
10115;BME280;5097;43.260;27.812;2023-04-08T00:15:43;100556.66;;;6.99;66.14
10115;BME280;5097;43.260;27.812;2023-04-08T00:18:27;100574.34;;;7.21;66.27
10115;BME280;5097;43.260;27.812;2023-04-08T00:21:11;100577.00;;;6.91;66.94
10115;BME280;5097;43.260;27.812;2023-04-08T00:23:59;100574.16;;;6.99;65.07
10115;BME280;5097;43.260;27.812;2023-04-08T00:26:43;100579.41;;;7.27;65.56
10115;BME280;5097;43.260;27.812;2023-04-08T00:29:27;100577.78;;;7.23;64.76
10115;BME280;5097;43.260;27.812;2023-04-08T00:32:11;100583.72;;;7.01;65.80
10115;BME280;5097;43.260;27.812;2023-04-08T00:34:55;100585.94;;;7.15;63.55
10115;BME280;5097;43.260;27.812;2023-04-08T00:37:39;100573.47;;;7.49;64.12
10115;BME280;5097;43.260;27.812;2023-04-08T00:40:24;100586.53;;;7.77;64.14
10115;BME280;5097;43.260;27.812;2023-04-08T00:43:08;100573.72;;;7.93;64.35
10115;BME280;5097;43.260;27.812;2023-04-08T00:45:52;100582.50;;;7.92;63.41
10115;BME280;5097;43.260;27.812;2023-04-08T00:48:35;100588.28;;;7.77;62.01
10115;BME280;5097;43.260;27.812;2023-04-08T00:51:19;100580.25;;;7.81;60.89
10115;BME280;5097;43.260;27.812;2023-04-08T00:54:04;100573.00;;;7.88;59.66
10115;BME280;5097;43.260;27.812;2023-04-08T00:56:49;100577.06;;;7.98;62.42
10115;BME280;5097;43.260;27.812;2023-04-08T00:59:33;100575.16;;;7.50;64.50
10115;BME280;5097;43.260;27.812;2023-04-08T01:02:25;100584.72;;;7.52;64.68
10115;BME280;5097;43.260;27.812;2023-04-08T01:05:14;100581.13;;;7.55;64.20
10115;BME280;5097;43.260;27.812;2023-04-08T01:08:04;100540.78;;;7.56;63.98
10115;BME280;5097;43.260;27.812;2023-04-08T01:10:50;100569.50;;;7.62;64.34
10115;BME280;5097;43.260;27.812;2023-04-08T01:13:39;100559.91;;;7.34;64.89
10115;BME280;5097;43.260;27.812;2023-04-08T01:16:25;100527.47;;;7.09;66.04
10115;BME280;5097;43.260;27.812;2023-04-08T01:19:16;100509.72;;;7.15;64.74
10115;BME280;5097;43.260;27.812;2023-04-08T01:22:04;100531.13;;;7.30;64.03
10115;BME280;5097;43.260;27.812;2023-04-08T01:24:58;100561.75;;;7.58;62.64
10115;BME280;5097;43.260;27.812;2023-04-08T01:27:47;100524.63;;;7.15;64.33
10115;BME280;5097;43.260;27.812;2023-04-08T01:30:32;100536.44;;;7.01;63.78
10115;BME280;5097;43.260;27.812;2023-04-08T01:33:17;100569.53;;;7.35;63.84
10115;BME280;5097;43.260;27.812;2023-04-08T01:36:04;100529.88;;;7.42;63.55
10115;BME280;5097;43.260;27.812;2023-04-08T01:38:52;100523.41;;;7.25;62.10
10115;BME280;5097;43.260;27.812;2023-04-08T01:41:36;100580.22;;;7.56;61.56
10115;BME280;5097;43.260;27.812;2023-04-08T01:44:23;100567.56;;;7.67;62.02
10115;BME280;5097;43.260;27.812;2023-04-08T01:47:09;100570.84;;;7.47;61.63
10115;BME280;5097;43.260;27.812;2023-04-08T01:49:56;100511.78;;;7.05;61.82
10115;BME280;5097;43.260;27.812;2023-04-08T01:52:43;100562.00;;;7.50;62.45
10115;BME280;5097;43.260;27.812;2023-04-08T01:55:28;100555.09;;;7.47;62.83
10115;BME280;5097;43.260;27.812;2023-04-08T01:58:17;100557.16;;;7.64;62.02
10115;BME280;5097;43.260;27.812;2023-04-08T02:01:05;100558.94;;;7.64;62.09
10115;BME280;5097;43.260;27.812;2023-04-08T02:03:52;100543.91;;;7.67;61.82
10115;BME280;5097;43.260;27.812;2023-04-08T02:06:39;100556.72;;;7.77;62.78
10115;BME280;5097;43.260;27.812;2023-04-08T02:09:23;100566.66;;;7.68;62.75
10115;BME280;5097;43.260;27.812;2023-04-08T02:12:07;100571.16;;;7.38;63.49
10115;BME280;5097;43.260;27.812;2023-04-08T02:14:52;100578.00;;;7.44;62.82
10115;BME280;5097;43.260;27.812;2023-04-08T02:17:42;100576.47;;;7.36;62.83
10115;BME280;5097;43.260;27.812;2023-04-08T02:20:33;100574.81;;;7.34;63.97
10115;BME280;5097;43.260;27.812;2023-04-08T02:23:22;100533.03;;;6.69;66.31
10115;BME280;5097;43.260;27.812;2023-04-08T02:26:12;100582.50;;;6.53;68.32
10115;BME280;5097;43.260;27.812;2023-04-08T02:28:57;100592.97;;;6.85;68.35
10115;BME280;5097;43.260;27.812;2023-04-08T02:31:42;100591.09;;;6.90;67.83
10115;BME280;5097;43.260;27.812;2023-04-08T02:34:30;100592.69;;;6.94;68.39
10115;BME280;5097;43.260;27.812;2023-04-08T02:37:15;100600.66;;;6.61;70.27
10115;BME280;5097;43.260;27.812;2023-04-08T02:39:59;100593.78;;;6.57;69.69
10115;BME280;5097;43.260;27.812;2023-04-08T02:42:44;100589.00;;;6.42;70.47
10115;BME280;5097;43.260;27.812;2023-04-08T02:45:30;100596.75;;;6.15;71.13
10115;BME280;5097;43.260;27.812;2023-04-08T02:48:14;100593.75;;;5.94;71.98
10115;BME280;5097;43.260;27.812;2023-04-08T02:51:00;100597.25;;;5.93;71.57
10115;BME280;5097;43.260;27.812;2023-04-08T02:53:43;100585.25;;;5.84;71.54
10115;BME280;5097;43.260;27.812;2023-04-08T02:56:27;100573.31;;;5.73;71.60
10115;BME280;5097;43.260;27.812;2023-04-08T02:59:11;100543.72;;;4.98;72.75
10115;BME280;5097;43.260;27.812;2023-04-08T03:01:55;100585.38;;;5.08;73.11
10115;BME280;5097;43.260;27.812;2023-04-08T03:04:39;100592.81;;;4.87;73.25
10115;BME280;5097;43.260;27.812;2023-04-08T03:07:24;100580.97;;;4.70;73.60
10115;BME280;5097;43.260;27.812;2023-04-08T03:10:09;100603.59;;;4.73;74.59
10115;BME280;5097;43.260;27.812;2023-04-08T03:12:53;100601.56;;;4.45;74.57
10115;BME280;5097;43.260;27.812;2023-04-08T03:15:37;100612.88;;;4.46;74.89
10115;BME280;5097;43.260;27.812;2023-04-08T03:18:20;100611.25;;;4.40;74.69
10115;BME280;5097;43.260;27.812;2023-04-08T03:21:04;100614.72;;;4.41;74.78
10115;BME280;5097;43.260;27.812;2023-04-08T03:23:50;100609.53;;;4.38;74.10
10115;BME280;5097;43.260;27.812;2023-04-08T03:26:33;100616.31;;;4.48;73.93
10115;BME280;5097;43.260;27.812;2023-04-08T03:29:17;100604.16;;;4.45;73.57
10115;BME280;5097;43.260;27.812;2023-04-08T03:32:01;100617.72;;;4.64;73.42
10115;BME280;5097;43.260;27.812;2023-04-08T03:34:45;100606.38;;;4.65;73.17
10115;BME280;5097;43.260;27.812;2023-04-08T03:37:32;100621.00;;;4.74;73.88
10115;BME280;5097;43.260;27.812;2023-04-08T03:40:18;100622.78;;;4.74;73.63
10115;BME280;5097;43.260;27.812;2023-04-08T03:43:02;100585.75;;;4.50;73.48
10115;BME280;5097;43.260;27.812;2023-04-08T03:45:47;100630.13;;;4.56;73.97
10115;BME280;5097;43.260;27.812;2023-04-08T03:48:31;100608.28;;;4.57;73.43
10115;BME280;5097;43.260;27.812;2023-04-08T03:51:15;100634.19;;;5.12;72.77
10115;BME280;5097;43.260;27.812;2023-04-08T03:53:58;100640.91;;;5.22;72.45
10115;BME280;5097;43.260;27.812;2023-04-08T03:56:44;100641.72;;;5.26;71.45
10115;BME280;5097;43.260;27.812;2023-04-08T03:59:27;100646.41;;;5.49;71.01
10115;BME280;5097;43.260;27.812;2023-04-08T04:02:12;100642.91;;;5.50;70.41
10115;BME280;5097;43.260;27.812;2023-04-08T04:04:56;100604.38;;;5.17;70.77
10115;BME280;5097;43.260;27.812;2023-04-08T04:07:39;100639.06;;;5.27;71.21
10115;BME280;5097;43.260;27.812;2023-04-08T04:10:23;100594.53;;;5.27;70.50
10115;BME280;5097;43.260;27.812;2023-04-08T04:13:09;100648.66;;;6.02;70.46
10115;BME280;5097;43.260;27.812;2023-04-08T04:15:53;100649.19;;;6.15;70.73
10115;BME280;5097;43.260;27.812;2023-04-08T04:18:37;100663.31;;;6.42;70.47
10115;BME280;5097;43.260;27.812;2023-04-08T04:21:21;100654.53;;;6.75;69.09
10115;BME280;5097;43.260;27.812;2023-04-08T04:24:05;100657.38;;;6.98;69.35
10115;BME280;5097;43.260;27.812;2023-04-08T04:26:48;100660.25;;;7.19;68.94
10115;BME280;5097;43.260;27.812;2023-04-08T04:29:34;100661.53;;;7.34;68.86
10115;BME280;5097;43.260;27.812;2023-04-08T04:32:17;100653.72;;;7.59;68.90
10115;BME280;5097;43.260;27.812;2023-04-08T04:35:02;100659.09;;;7.83;68.29
10115;BME280;5097;43.260;27.812;2023-04-08T04:37:46;100660.66;;;7.88;67.96
10115;BME280;5097;43.260;27.812;2023-04-08T04:40:31;100643.81;;;7.94;68.48
10115;BME280;5097;43.260;27.812;2023-04-08T04:43:15;100654.78;;;8.32;68.14
10115;BME280;5097;43.260;27.812;2023-04-08T04:46:00;100646.63;;;8.15;67.64
10115;BME280;5097;43.260;27.812;2023-04-08T04:48:45;100644.91;;;8.14;68.35
10115;BME280;5097;43.260;27.812;2023-04-08T04:51:30;100659.03;;;8.36;68.26
10115;BME280;5097;43.260;27.812;2023-04-08T04:54:14;100657.34;;;8.84;67.18
10115;BME280;5097;43.260;27.812;2023-04-08T04:56:57;100662.06;;;8.75;66.73
10115;BME280;5097;43.260;27.812;2023-04-08T04:59:42;100663.94;;;8.72;67.56
10115;BME280;5097;43.260;27.812;2023-04-08T05:02:27;100667.41;;;8.97;67.37
10115;BME280;5097;43.260;27.812;2023-04-08T05:05:11;100665.47;;;9.02;67.50
10115;BME280;5097;43.260;27.812;2023-04-08T05:07:55;100629.44;;;9.02;67.15
10115;BME280;5097;43.260;27.812;2023-04-08T05:10:39;100668.31;;;9.64;67.04
10115;BME280;5097;43.260;27.812;2023-04-08T05:13:24;100673.69;;;9.83;66.39
10115;BME280;5097;43.260;27.812;2023-04-08T05:16:08;100641.28;;;10.01;65.58
10115;BME280;5097;43.260;27.812;2023-04-08T05:18:53;100642.88;;;10.26;66.09
10115;BME280;5097;43.260;27.812;2023-04-08T05:21:37;100666.50;;;10.89;63.70
10115;BME280;5097;43.260;27.812;2023-04-08T05:24:21;100661.03;;;11.50;62.74
10115;BME280;5097;43.260;27.812;2023-04-08T05:27:04;100664.97;;;11.60;61.45
10115;BME280;5097;43.260;27.812;2023-04-08T05:29:48;100671.88;;;11.99;60.13
10115;BME280;5097;43.260;27.812;2023-04-08T05:32:32;100661.63;;;11.37;61.30
10115;BME280;5097;43.260;27.812;2023-04-08T05:35:17;100663.78;;;11.66;60.80
10115;BME280;5097;43.260;27.812;2023-04-08T05:38:01;100676.03;;;11.68;60.57
10115;BME280;5097;43.260;27.812;2023-04-08T05:40:45;100668.31;;;12.00;59.63
10115;BME280;5097;43.260;27.812;2023-04-08T05:43:31;100665.94;;;12.29;59.75
10115;BME280;5097;43.260;27.812;2023-04-08T05:46:15;100669.56;;;11.91;59.85
10115;BME280;5097;43.260;27.812;2023-04-08T05:48:59;100656.75;;;12.19;60.21
10115;BME280;5097;43.260;27.812;2023-04-08T05:51:44;100674.00;;;11.18;62.67
10115;BME280;5097;43.260;27.812;2023-04-08T05:54:28;100666.66;;;11.98;60.54
10115;BME280;5097;43.260;27.812;2023-04-08T05:57:12;100659.19;;;12.06;60.36
10115;BME280;5097;43.260;27.812;2023-04-08T05:59:56;100659.56;;;12.16;60.19
10115;BME280;5097;43.260;27.812;2023-04-08T06:02:40;100636.34;;;11.86;60.01
10115;BME280;5097;43.260;27.812;2023-04-08T06:05:24;100674.69;;;12.31;60.93
10115;BME280;5097;43.260;27.812;2023-04-08T06:08:09;100672.78;;;12.33;60.76
10115;BME280;5097;43.260;27.812;2023-04-08T06:10:53;100669.50;;;12.63;60.05
10115;BME280;5097;43.260;27.812;2023-04-08T06:13:37;100658.66;;;12.84;58.95
10115;BME280;5097;43.260;27.812;2023-04-08T06:16:21;100665.78;;;12.83;58.37
10115;BME280;5097;43.260;27.812;2023-04-08T06:19:04;100668.34;;;12.51;58.97
10115;BME280;5097;43.260;27.812;2023-04-08T06:21:48;100665.03;;;12.13;60.35
10115;BME280;5097;43.260;27.812;2023-04-08T06:24:34;100664.75;;;12.35;60.26
10115;BME280;5097;43.260;27.812;2023-04-08T06:27:18;100679.88;;;12.84;59.37
10115;BME280;5097;43.260;27.812;2023-04-08T06:30:03;100662.38;;;13.29;57.74
10115;BME280;5097;43.260;27.812;2023-04-08T06:32:47;100664.94;;;13.15;57.34
10115;BME280;5097;43.260;27.812;2023-04-08T06:35:31;100665.44;;;11.68;60.28
10115;BME280;5097;43.260;27.812;2023-04-08T06:38:15;100669.16;;;11.64;62.89
10115;BME280;5097;43.260;27.812;2023-04-08T06:41:02;100648.97;;;12.16;61.81
10115;BME280;5097;43.260;27.812;2023-04-08T06:43:46;100667.38;;;12.52;59.61
10115;BME280;5097;43.260;27.812;2023-04-08T06:46:30;100649.53;;;12.05;60.21
10115;BME280;5097;43.260;27.812;2023-04-08T06:49:14;100661.91;;;12.04;59.97
10115;BME280;5097;43.260;27.812;2023-04-08T06:51:58;100668.44;;;12.15;59.24
10115;BME280;5097;43.260;27.812;2023-04-08T06:54:42;100677.69;;;12.41;58.35
10115;BME280;5097;43.260;27.812;2023-04-08T06:57:27;100675.41;;;11.81;58.86
10115;BME280;5097;43.260;27.812;2023-04-08T07:00:12;100673.03;;;12.29;58.61
10115;BME280;5097;43.260;27.812;2023-04-08T07:02:56;100674.41;;;12.53;58.88
10115;BME280;5097;43.260;27.812;2023-04-08T07:05:39;100674.44;;;12.69;57.93
10115;BME280;5097;43.260;27.812;2023-04-08T07:08:24;100675.81;;;12.61;57.15
10115;BME280;5097;43.260;27.812;2023-04-08T07:11:08;100686.63;;;12.56;56.67
10115;BME280;5097;43.260;27.812;2023-04-08T07:13:54;100686.25;;;12.64;56.65
10115;BME280;5097;43.260;27.812;2023-04-08T07:16:37;100695.66;;;12.69;54.96
10115;BME280;5097;43.260;27.812;2023-04-08T07:19:21;100683.31;;;13.02;55.25
10115;BME280;5097;43.260;27.812;2023-04-08T07:22:06;100695.06;;;12.47;54.78
10115;BME280;5097;43.260;27.812;2023-04-08T07:24:50;100697.63;;;13.31;53.38
10115;BME280;5097;43.260;27.812;2023-04-08T07:27:33;100692.13;;;13.52;52.64
10115;BME280;5097;43.260;27.812;2023-04-08T07:30:19;100684.97;;;13.68;53.61
10115;BME280;5097;43.260;27.812;2023-04-08T07:33:03;100697.38;;;13.84;53.87
10115;BME280;5097;43.260;27.812;2023-04-08T07:35:47;100701.44;;;14.05;52.85
10115;BME280;5097;43.260;27.812;2023-04-08T07:38:32;100692.03;;;13.37;51.81
10115;BME280;5097;43.260;27.812;2023-04-08T07:41:16;100698.97;;;13.56;53.86
10115;BME280;5097;43.260;27.812;2023-04-08T07:44:00;100691.81;;;13.72;53.52
10115;BME280;5097;43.260;27.812;2023-04-08T07:46:45;100648.84;;;13.18;53.34
10115;BME280;5097;43.260;27.812;2023-04-08T07:49:32;100687.47;;;13.23;53.55
10115;BME280;5097;43.260;27.812;2023-04-08T07:52:16;100699.50;;;12.97;54.49
10115;BME280;5097;43.260;27.812;2023-04-08T07:55:00;100698.56;;;11.95;56.27
10115;BME280;5097;43.260;27.812;2023-04-08T07:57:44;100679.75;;;12.69;56.71
10115;BME280;5097;43.260;27.812;2023-04-08T08:00:28;100695.63;;;13.36;54.06
10115;BME280;5097;43.260;27.812;2023-04-08T08:03:14;100704.44;;;12.87;54.46
10115;BME280;5097;43.260;27.812;2023-04-08T08:05:58;100696.75;;;12.99;53.79
10115;BME280;5097;43.260;27.812;2023-04-08T08:08:42;100704.56;;;13.18;54.24
10115;BME280;5097;43.260;27.812;2023-04-08T08:11:26;100704.22;;;13.24;53.90
10115;BME280;5097;43.260;27.812;2023-04-08T08:14:09;100705.41;;;13.02;54.84
10115;BME280;5097;43.260;27.812;2023-04-08T08:16:55;100697.97;;;13.09;54.35
10115;BME280;5097;43.260;27.812;2023-04-08T08:19:40;100710.16;;;13.29;53.21
10115;BME280;5097;43.260;27.812;2023-04-08T08:22:24;100696.28;;;12.74;54.75
10115;BME280;5097;43.260;27.812;2023-04-08T08:25:09;100714.69;;;12.60;55.54
10115;BME280;5097;43.260;27.812;2023-04-08T08:27:53;100702.56;;;13.05;55.40
10115;BME280;5097;43.260;27.812;2023-04-08T08:30:37;100713.13;;;13.23;53.60
10115;BME280;5097;43.260;27.812;2023-04-08T08:33:21;100714.06;;;13.22;53.80
10115;BME280;5097;43.260;27.812;2023-04-08T08:36:06;100716.00;;;13.36;52.94
10115;BME280;5097;43.260;27.812;2023-04-08T08:38:50;100719.25;;;13.57;52.74
10115;BME280;5097;43.260;27.812;2023-04-08T08:41:35;100727.22;;;14.03;51.80
10115;BME280;5097;43.260;27.812;2023-04-08T08:44:19;100720.41;;;13.83;51.92
10115;BME280;5097;43.260;27.812;2023-04-08T08:47:04;100718.84;;;13.31;51.87
10115;BME280;5097;43.260;27.812;2023-04-08T08:49:48;100725.06;;;13.80;52.56
10115;BME280;5097;43.260;27.812;2023-04-08T08:52:33;100729.22;;;14.30;50.64
10115;BME280;5097;43.260;27.812;2023-04-08T08:55:18;100595.78;;;13.50;50.93
10115;BME280;5097;43.260;27.812;2023-04-08T08:58:25;100728.56;;;14.71;48.96
10115;BME280;5097;43.260;27.812;2023-04-08T09:01:30;100717.50;;;14.49;49.27
10115;BME280;5097;43.260;27.812;2023-04-08T09:04:16;100741.28;;;14.66;47.96
10115;BME280;5097;43.260;27.812;2023-04-08T09:07:08;100746.63;;;15.09;47.78
10115;BME280;5097;43.260;27.812;2023-04-08T09:09:55;100714.88;;;15.21;45.62
10115;BME280;5097;43.260;27.812;2023-04-08T09:12:53;100746.88;;;15.48;46.53
10115;BME280;5097;43.260;27.812;2023-04-08T09:15:59;100746.91;;;15.34;47.28
10115;BME280;5097;43.260;27.812;2023-04-08T09:18:44;100734.47;;;14.77;47.38
10115;BME280;5097;43.260;27.812;2023-04-08T09:21:30;100749.38;;;15.22;46.95
10115;BME280;5097;43.260;27.812;2023-04-08T09:24:27;100739.50;;;14.81;49.08
10115;BME280;5097;43.260;27.812;2023-04-08T09:27:12;100717.47;;;14.94;47.19
10115;BME280;5097;43.260;27.812;2023-04-08T09:30:12;100744.97;;;13.23;50.49
10115;BME280;5097;43.260;27.812;2023-04-08T09:32:57;100708.03;;;12.18;53.69
10115;BME280;5097;43.260;27.812;2023-04-08T09:35:43;100735.13;;;13.89;52.29
10115;BME280;5097;43.260;27.812;2023-04-08T09:38:28;100734.13;;;14.52;50.34
10115;BME280;5097;43.260;27.812;2023-04-08T09:41:13;100746.72;;;14.18;50.49
10115;BME280;5097;43.260;27.812;2023-04-08T09:44:02;100736.25;;;13.21;52.61
10115;BME280;5097;43.260;27.812;2023-04-08T09:46:55;100733.16;;;13.93;52.90
10115;BME280;5097;43.260;27.812;2023-04-08T09:49:45;100733.69;;;13.67;53.23
10115;BME280;5097;43.260;27.812;2023-04-08T09:52:33;100732.06;;;12.99;56.24
10115;BME280;5097;43.260;27.812;2023-04-08T09:55:21;100729.75;;;12.93;55.68
10115;BME280;5097;43.260;27.812;2023-04-08T09:58:10;100731.94;;;13.68;53.62
10115;BME280;5097;43.260;27.812;2023-04-08T10:01:00;100727.13;;;13.74;53.22
10115;BME280;5097;43.260;27.812;2023-04-08T10:03:48;100730.44;;;13.62;54.32
10115;BME280;5097;43.260;27.812;2023-04-08T10:06:36;100721.22;;;13.69;53.39
10115;BME280;5097;43.260;27.812;2023-04-08T10:09:21;100717.16;;;12.81;55.85
10115;BME280;5097;43.260;27.812;2023-04-08T10:12:05;100727.69;;;12.82;56.61
10115;BME280;5097;43.260;27.812;2023-04-08T10:15:23;100724.13;;;12.99;54.26
10115;BME280;5097;43.260;27.812;2023-04-08T10:18:30;100724.13;;;13.49;52.18
10115;BME280;5097;43.260;27.812;2023-04-08T10:21:34;100669.03;;;13.04;51.24
10115;BME280;5097;43.260;27.812;2023-04-08T10:24:19;100719.28;;;12.74;51.99
10115;BME280;5097;43.260;27.812;2023-04-08T10:27:37;100705.19;;;12.56;56.81
10115;BME280;5097;43.260;27.812;2023-04-08T10:30:41;100702.41;;;13.08;55.98
10115;BME280;5097;43.260;27.812;2023-04-08T10:33:32;100689.97;;;13.43;52.62
10115;BME280;5097;43.260;27.812;2023-04-08T10:36:21;100706.59;;;12.97;55.76
10115;BME280;5097;43.260;27.812;2023-04-08T10:39:06;100656.97;;;13.31;52.81
10115;BME280;5097;43.260;27.812;2023-04-08T10:41:49;100710.91;;;13.31;54.47
10115;BME280;5097;43.260;27.812;2023-04-08T10:44:33;100700.59;;;13.58;55.64
10115;BME280;5097;43.260;27.812;2023-04-08T10:47:24;100659.38;;;13.67;51.49
10115;BME280;5097;43.260;27.812;2023-04-08T10:50:15;100717.09;;;14.10;52.93
10115;BME280;5097;43.260;27.812;2023-04-08T10:53:00;100710.06;;;14.09;51.56
10115;BME280;5097;43.260;27.812;2023-04-08T10:55:43;100711.34;;;13.71;52.39
10115;BME280;5097;43.260;27.812;2023-04-08T10:58:28;100724.13;;;12.99;54.04
10115;BME280;5097;43.260;27.812;2023-04-08T11:01:12;100714.34;;;13.33;54.95
10115;BME280;5097;43.260;27.812;2023-04-08T11:03:57;100711.41;;;13.86;53.86
10115;BME280;5097;43.260;27.812;2023-04-08T11:06:44;100685.19;;;13.49;52.80
10115;BME280;5097;43.260;27.812;2023-04-08T11:09:28;100709.41;;;14.05;51.37
10115;BME280;5097;43.260;27.812;2023-04-08T11:12:14;100704.88;;;13.61;53.63
10115;BME280;5097;43.260;27.812;2023-04-08T11:15:00;100718.19;;;13.75;52.87
10115;BME280;5097;43.260;27.812;2023-04-08T11:17:46;100707.50;;;13.29;52.68
10115;BME280;5097;43.260;27.812;2023-04-08T11:20:31;100677.06;;;12.36;53.74
10115;BME280;5097;43.260;27.812;2023-04-08T11:23:19;100678.78;;;12.88;54.26
10115;BME280;5097;43.260;27.812;2023-04-08T11:26:04;100701.00;;;14.13;53.10
10115;BME280;5097;43.260;27.812;2023-04-08T11:28:49;100696.78;;;13.31;54.03
10115;BME280;5097;43.260;27.812;2023-04-08T11:31:34;100681.84;;;13.92;52.84
10115;BME280;5097;43.260;27.812;2023-04-08T11:34:22;100692.03;;;14.45;53.19
10115;BME280;5097;43.260;27.812;2023-04-08T11:37:06;100646.09;;;13.67;53.47
10115;BME280;5097;43.260;27.812;2023-04-08T11:39:53;100692.41;;;13.78;53.37
10115;BME280;5097;43.260;27.812;2023-04-08T11:42:38;100674.19;;;14.61;51.65
10115;BME280;5097;43.260;27.812;2023-04-08T11:45:22;100657.53;;;14.73;52.37
10115;BME280;5097;43.260;27.812;2023-04-08T11:48:09;100670.88;;;14.43;53.35
10115;BME280;5097;43.260;27.812;2023-04-08T11:51:02;100675.38;;;14.71;50.99
10115;BME280;5097;43.260;27.812;2023-04-08T11:53:46;100673.84;;;15.11;51.20
10115;BME280;5097;43.260;27.812;2023-04-08T11:56:43;100661.50;;;14.66;52.77
10115;BME280;5097;43.260;27.812;2023-04-08T11:59:28;100644.53;;;14.69;52.00
10115;BME280;5097;43.260;27.812;2023-04-08T12:02:12;100612.41;;;14.43;52.23
10115;BME280;5097;43.260;27.812;2023-04-08T12:04:56;100665.13;;;14.65;51.66
10115;BME280;5097;43.260;27.812;2023-04-08T12:07:40;100658.75;;;14.97;51.40
10115;BME280;5097;43.260;27.812;2023-04-08T12:10:24;100668.16;;;15.02;51.95
10115;BME280;5097;43.260;27.812;2023-04-08T12:13:09;100670.38;;;14.36;53.25
10115;BME280;5097;43.260;27.812;2023-04-08T12:15:53;100635.94;;;14.35;54.31
10115;BME280;5097;43.260;27.812;2023-04-08T12:18:37;100654.63;;;14.48;52.96
10115;BME280;5097;43.260;27.812;2023-04-08T12:21:21;100664.84;;;14.84;52.41
10115;BME280;5097;43.260;27.812;2023-04-08T12:24:05;100658.00;;;14.66;51.17
10115;BME280;5097;43.260;27.812;2023-04-08T12:26:49;100658.25;;;14.61;51.77
10115;BME280;5097;43.260;27.812;2023-04-08T12:29:34;100627.41;;;13.38;54.27
10115;BME280;5097;43.260;27.812;2023-04-08T12:32:18;100651.97;;;14.48;51.44
10115;BME280;5097;43.260;27.812;2023-04-08T12:35:03;100644.06;;;14.17;52.20
10115;BME280;5097;43.260;27.812;2023-04-08T12:37:47;100641.25;;;14.35;52.26
10115;BME280;5097;43.260;27.812;2023-04-08T12:40:31;100483.31;;;13.36;51.79
10115;BME280;5097;43.260;27.812;2023-04-08T12:43:15;100630.84;;;14.01;52.54
10115;BME280;5097;43.260;27.812;2023-04-08T12:46:00;100627.88;;;14.36;53.15
10115;BME280;5097;43.260;27.812;2023-04-08T12:48:44;100630.69;;;14.19;52.10
10115;BME280;5097;43.260;27.812;2023-04-08T12:51:30;100628.25;;;14.59;49.72
10115;BME280;5097;43.260;27.812;2023-04-08T12:54:14;100629.47;;;14.39;51.23
10115;BME280;5097;43.260;27.812;2023-04-08T12:56:58;100633.41;;;14.77;49.68
10115;BME280;5097;43.260;27.812;2023-04-08T12:59:42;100629.50;;;14.82;49.98
10115;BME280;5097;43.260;27.812;2023-04-08T13:02:28;100615.84;;;14.74;49.59
10115;BME280;5097;43.260;27.812;2023-04-08T13:05:12;100626.00;;;14.82;49.28
10115;BME280;5097;43.260;27.812;2023-04-08T13:07:56;100624.53;;;15.05;48.83
10115;BME280;5097;43.260;27.812;2023-04-08T13:10:40;100615.69;;;15.04;49.29
10115;BME280;5097;43.260;27.812;2023-04-08T13:13:24;100590.63;;;14.07;47.54
10115;BME280;5097;43.260;27.812;2023-04-08T13:16:08;100623.28;;;14.38;50.94
10115;BME280;5097;43.260;27.812;2023-04-08T13:18:53;100625.00;;;14.25;50.33
10115;BME280;5097;43.260;27.812;2023-04-08T13:21:37;100588.81;;;14.22;50.57
10115;BME280;5097;43.260;27.812;2023-04-08T13:24:21;100617.03;;;14.54;51.76
10115;BME280;5097;43.260;27.812;2023-04-08T13:27:05;100619.06;;;14.79;50.55
10115;BME280;5097;43.260;27.812;2023-04-08T13:29:49;100623.25;;;14.83;50.25
10115;BME280;5097;43.260;27.812;2023-04-08T13:32:33;100618.19;;;14.79;50.08
10115;BME280;5097;43.260;27.812;2023-04-08T13:35:18;100605.47;;;14.40;50.87
10115;BME280;5097;43.260;27.812;2023-04-08T13:38:02;100628.47;;;14.70;51.05
10115;BME280;5097;43.260;27.812;2023-04-08T13:40:46;100621.25;;;14.87;50.34
10115;BME280;5097;43.260;27.812;2023-04-08T13:43:31;100622.56;;;14.65;50.82
10115;BME280;5097;43.260;27.812;2023-04-08T13:46:16;100626.88;;;13.00;56.50
10115;BME280;5097;43.260;27.812;2023-04-08T13:49:01;100503.47;;;13.08;54.63
10115;BME280;5097;43.260;27.812;2023-04-08T13:51:47;100618.84;;;13.80;54.94
10115;BME280;5097;43.260;27.812;2023-04-08T13:54:31;100624.75;;;13.99;52.93
10115;BME280;5097;43.260;27.812;2023-04-08T13:57:16;100581.00;;;12.82;55.91
10115;BME280;5097;43.260;27.812;2023-04-08T14:00:00;100627.50;;;12.55;58.32
10115;BME280;5097;43.260;27.812;2023-04-08T14:02:52;100630.75;;;12.61;60.06
10115;BME280;5097;43.260;27.812;2023-04-08T14:05:36;100623.34;;;13.31;56.50
10115;BME280;5097;43.260;27.812;2023-04-08T14:08:22;100617.28;;;12.97;60.81
10115;BME280;5097;43.260;27.812;2023-04-08T14:11:08;100605.13;;;13.09;58.49
10115;BME280;5097;43.260;27.812;2023-04-08T14:13:53;100595.88;;;13.48;57.21
10115;BME280;5097;43.260;27.812;2023-04-08T14:16:38;100622.00;;;13.86;55.47
10115;BME280;5097;43.260;27.812;2023-04-08T14:19:23;100618.28;;;13.89;56.35
10115;BME280;5097;43.260;27.812;2023-04-08T14:22:08;100619.94;;;12.97;59.08
10115;BME280;5097;43.260;27.812;2023-04-08T14:24:54;100458.81;;;12.38;58.18
10115;BME280;5097;43.260;27.812;2023-04-08T14:27:39;100607.50;;;13.92;57.35
10115;BME280;5097;43.260;27.812;2023-04-08T14:30:38;100605.88;;;13.43;58.41